createdAt,value
2019-04-16T00:02:08.146Z,9.50
2019-04-16T00:05:03.674Z,9.77
2019-04-16T00:07:56.227Z,8.93
2019-04-16T00:10:44.037Z,9.30
2019-04-16T00:13:23.197Z,9.03
2019-04-16T00:15:55.028Z,10.40
2019-04-16T00:18:25.070Z,9.90
2019-04-16T00:21:19.887Z,9.00
2019-04-16T00:24:19.197Z,9.90
2019-04-16T00:26:58.000Z,10.03
2019-04-16T00:29:25.518Z,9.00
2019-04-16T00:32:00.047Z,10.03
2019-04-16T00:34:30.005Z,9.37
2019-04-16T00:36:59.918Z,10.07
2019-04-16T00:39:29.893Z,10.80
2019-04-16T00:41:59.805Z,9.70
2019-04-16T00:44:30.150Z,10.07
2019-04-16T00:47:00.132Z,10.23
2019-04-16T00:49:30.007Z,9.93
2019-04-16T00:51:59.990Z,9.87
2019-04-16T00:54:29.971Z,10.47
2019-04-16T00:57:00.170Z,10.10
2019-04-16T00:59:30.242Z,9.97
2019-04-16T01:02:00.345Z,10.07
2019-04-16T01:04:30.394Z,9.97
2019-04-16T01:07:00.521Z,10.37
2019-04-16T01:09:30.661Z,9.70
2019-04-16T01:12:00.665Z,10.53
2019-04-16T01:14:30.711Z,10.07
2019-04-16T01:17:03.853Z,10.37
2019-04-16T01:19:32.330Z,9.97
2019-04-16T01:22:02.357Z,10.77
2019-04-16T01:24:33.433Z,10.07
2019-04-16T01:27:03.499Z,10.40
2019-04-16T01:29:34.539Z,10.90
2019-04-16T01:32:30.691Z,10.90
2019-04-16T01:35:19.855Z,9.53
2019-04-16T01:38:08.819Z,10.47
2019-04-16T01:40:55.120Z,9.53
2019-04-16T01:43:25.872Z,10.13
2019-04-16T01:46:00.838Z,10.13
2019-04-16T01:48:27.992Z,9.60
2019-04-16T01:50:58.523Z,9.73
2019-04-16T01:53:28.843Z,9.90
2019-04-16T01:55:58.897Z,10.30
2019-04-16T01:58:33.504Z,10.87
2019-04-16T02:01:00.780Z,10.17
2019-04-16T02:03:30.772Z,10.00
2019-04-16T02:06:01.227Z,9.90
2019-04-16T02:08:31.826Z,10.23
2019-04-16T02:11:01.934Z,10.43
2019-04-16T02:13:31.950Z,10.83
2019-04-16T02:16:01.997Z,10.07
2019-04-16T02:18:31.967Z,10.37
2019-04-16T02:21:03.015Z,10.33
2019-04-16T02:23:33.137Z,9.83
2019-04-16T02:26:03.123Z,9.30
2019-04-16T02:28:33.086Z,10.00
2019-04-16T02:31:03.109Z,10.17
2019-04-16T02:33:33.081Z,11.47
2019-04-16T02:36:03.093Z,9.77
2019-04-16T02:38:33.085Z,10.20
2019-04-16T02:41:02.961Z,10.23
2019-04-16T02:43:39.583Z,10.07
2019-04-16T02:46:04.937Z,9.67
2019-04-16T02:48:35.018Z,9.47
2019-04-16T02:51:13.812Z,11.63
2019-04-16T02:54:18.398Z,10.13
2019-04-16T02:57:13.404Z,10.33
2019-04-16T02:59:47.273Z,9.80
2019-04-16T03:02:38.085Z,9.83
2019-04-16T03:05:14.107Z,9.57
2019-04-16T03:07:44.201Z,10.03
2019-04-16T03:10:14.496Z,9.50
2019-04-16T03:12:44.399Z,9.73
2019-04-16T03:15:17.692Z,10.23
2019-04-16T03:17:47.577Z,9.47
2019-04-16T03:20:20.817Z,10.53
2019-04-16T03:22:49.550Z,10.00
2019-04-16T03:25:19.536Z,10.07
2019-04-16T03:27:51.473Z,10.40
2019-04-16T03:30:21.113Z,10.03
2019-04-16T03:32:51.816Z,10.17
2019-04-16T03:35:25.538Z,9.83
2019-04-16T03:37:53.548Z,9.83
2019-04-16T03:40:25.425Z,11.20
2019-04-16T03:42:58.892Z,9.53
2019-04-16T03:45:27.340Z,10.20
2019-04-16T03:47:57.333Z,10.30
2019-04-16T03:50:31.113Z,10.40
2019-04-16T03:52:59.308Z,10.77
2019-04-16T03:55:29.265Z,10.03
2019-04-16T03:57:59.250Z,10.43
2019-04-16T04:00:30.182Z,10.13
2019-04-16T04:02:59.999Z,10.57
2019-04-16T04:05:29.973Z,10.67
2019-04-16T04:08:00.015Z,11.27
2019-04-16T04:10:34.214Z,10.43
2019-04-16T04:13:04.888Z,10.27
2019-04-16T04:15:34.340Z,10.33
2019-04-16T04:18:04.318Z,11.30
2019-04-16T04:20:35.507Z,11.23
2019-04-16T04:23:05.850Z,10.30
2019-04-16T04:25:37.004Z,10.87
2019-04-16T04:28:07.166Z,9.90
2019-04-16T04:30:37.054Z,10.37
2019-04-16T04:33:08.647Z,10.47
2019-04-16T04:35:38.721Z,10.53
2019-04-16T04:38:08.682Z,10.43
2019-04-16T04:40:44.823Z,11.07
2019-04-16T04:43:10.859Z,11.13
2019-04-16T04:45:41.522Z,11.10
2019-04-16T04:48:12.234Z,11.93
2019-04-16T04:50:42.518Z,11.70
2019-04-16T04:53:15.632Z,11.20
2019-04-16T04:55:44.819Z,10.87
2019-04-16T04:58:14.951Z,10.57
2019-04-16T05:00:45.076Z,10.43
2019-04-16T05:03:25.395Z,11.33
2019-04-16T05:05:57.152Z,11.70
2019-04-16T05:08:28.653Z,11.27
2019-04-16T05:11:02.650Z,10.77
2019-04-16T05:13:31.419Z,11.10
2019-04-16T05:16:01.962Z,11.60
2019-04-16T05:18:32.741Z,11.20
2019-04-16T05:21:02.690Z,10.53
2019-04-16T05:23:32.670Z,10.97
2019-04-16T05:26:04.718Z,10.97
2019-04-16T05:28:35.478Z,11.47
2019-04-16T05:31:05.472Z,11.33
2019-04-16T05:33:37.347Z,11.93
2019-04-16T05:36:07.443Z,11.83
2019-04-16T05:38:37.433Z,10.37
2019-04-16T05:41:13.551Z,11.07
2019-04-16T05:43:39.105Z,10.97
2019-04-16T05:46:09.865Z,10.53
2019-04-16T05:48:40.174Z,10.90
2019-04-16T05:51:10.154Z,11.37
2019-04-16T05:53:41.813Z,10.57
2019-04-16T05:56:29.623Z,10.50
2019-04-16T05:58:59.632Z,11.07
2019-04-16T06:01:39.134Z,10.37
2019-04-16T06:04:09.123Z,10.53
2019-04-16T06:06:39.338Z,11.30
2019-04-16T06:09:12.184Z,11.30
2019-04-16T06:11:42.091Z,10.40
2019-04-16T06:14:26.131Z,10.33
2019-04-16T06:17:31.778Z,9.17
2019-04-16T06:20:24.450Z,9.53
2019-04-16T06:23:02.667Z,9.00
2019-04-16T06:25:41.310Z,9.17
2019-04-16T06:28:33.099Z,9.03
2019-04-16T06:31:26.468Z,9.00
2019-04-16T06:34:09.813Z,9.17
2019-04-16T06:37:00.611Z,9.07
2019-04-16T06:39:48.495Z,9.37
2019-04-16T06:42:38.658Z,9.23
2019-04-16T06:45:19.687Z,10.43
2019-04-16T06:47:56.897Z,10.43
2019-04-16T06:50:44.845Z,9.73
2019-04-16T06:53:53.957Z,8.73
2019-04-16T06:56:41.655Z,9.73
2019-04-16T06:59:36.602Z,9.27
2019-04-16T07:02:25.514Z,9.30
2019-04-16T07:05:04.694Z,10.10
2019-04-16T07:07:56.949Z,9.67
2019-04-16T07:10:43.717Z,9.53
2019-04-16T07:13:02.597Z,9.63
2019-04-16T07:15:32.602Z,9.57
2019-04-16T07:18:05.578Z,9.23
2019-04-16T07:20:34.803Z,9.33
2019-04-16T07:23:04.906Z,9.60
2019-04-16T07:25:39.766Z,9.37
2019-04-16T07:28:12.529Z,9.43
2019-04-16T07:30:47.727Z,9.20
2019-04-16T07:33:24.220Z,8.87
2019-04-16T07:36:08.862Z,9.47
2019-04-16T07:38:56.389Z,8.90
2019-04-16T07:41:31.620Z,10.00
2019-04-16T07:44:10.789Z,8.80
2019-04-16T07:46:56.627Z,9.17
2019-04-16T07:49:42.113Z,10.40
2019-04-16T07:52:28.932Z,9.67
2019-04-16T07:55:27.529Z,9.07
2019-04-16T07:57:57.883Z,10.27
2019-04-16T08:00:27.947Z,9.40
2019-04-16T08:02:57.960Z,10.23
2019-04-16T08:05:28.283Z,9.13
2019-04-16T08:07:58.502Z,9.90
2019-04-16T08:10:28.485Z,9.60
2019-04-16T08:13:06.896Z,10.10
2019-04-16T08:15:37.158Z,9.83
2019-04-16T08:18:07.226Z,10.60
2019-04-16T08:20:37.606Z,9.40
2019-04-16T08:23:25.556Z,9.70
2019-04-16T08:26:03.863Z,10.33
2019-04-16T08:28:28.159Z,9.97
2019-04-16T08:30:58.408Z,9.57
2019-04-16T08:33:29.294Z,10.13
2019-04-16T08:35:59.544Z,9.83
2019-04-16T08:38:34.157Z,9.80
2019-04-16T08:41:01.682Z,10.53
2019-04-16T08:43:31.625Z,9.73
2019-04-16T08:46:01.634Z,10.68
2019-04-16T08:48:31.634Z,9.75
2019-04-16T08:51:04.649Z,10.03
2019-04-16T08:53:35.541Z,8.55
2019-04-16T08:56:05.748Z,9.43
2019-04-16T08:58:38.307Z,9.85
2019-04-16T09:01:08.743Z,9.53
2019-04-16T09:03:38.701Z,9.73
2019-04-16T09:06:13.108Z,11.08
2019-04-16T09:09:18.373Z,11.45
2019-04-16T09:11:51.370Z,10.38
2019-04-16T09:14:25.762Z,10.90
2019-04-16T09:17:00.811Z,10.30
2019-04-16T09:19:30.805Z,10.65
2019-04-16T09:22:00.937Z,10.20
2019-04-16T09:24:46.863Z,10.98
2019-04-16T09:27:34.272Z,10.35
2019-04-16T09:30:28.306Z,10.30
2019-04-16T09:33:08.282Z,10.70
2019-04-16T09:35:59.080Z,10.20
2019-04-16T09:38:37.857Z,9.93
2019-04-16T09:41:22.118Z,10.13
2019-04-16T09:43:57.246Z,11.05
2019-04-16T09:46:49.590Z,11.33
2019-04-16T09:48:58.709Z,11.38
2019-04-16T09:51:28.970Z,10.50
2019-04-16T09:53:59.323Z,11.10
2019-04-16T09:56:30.172Z,11.75
2019-04-16T09:59:11.041Z,9.80
2019-04-16T10:01:49.029Z,10.63
2019-04-16T10:04:20.029Z,11.55
2019-04-16T10:06:50.537Z,10.95
2019-04-16T10:09:22.549Z,12.07
2019-04-16T10:11:52.723Z,12.00
2019-04-16T10:14:22.802Z,11.65
2019-04-16T10:16:52.802Z,12.45
2019-04-16T10:19:22.881Z,10.53
2019-04-16T10:21:54.255Z,12.23
2019-04-16T10:24:46.888Z,11.43
2019-04-16T10:27:41.955Z,11.53
2019-04-16T10:30:17.757Z,11.85
2019-04-16T10:32:47.936Z,12.58
2019-04-16T10:35:18.166Z,12.10
2019-04-16T10:37:48.222Z,11.78
2019-04-16T10:40:33.142Z,12.30
2019-04-16T10:43:21.450Z,10.68
2019-04-16T10:46:09.875Z,11.30
2019-04-16T10:48:53.499Z,11.28
2019-04-16T10:51:48.948Z,11.78
2019-04-16T10:54:37.155Z,12.55
2019-04-16T10:57:45.666Z,11.97
2019-04-16T11:00:27.203Z,11.78
2019-04-16T11:03:16.289Z,13.75
2019-04-16T11:05:59.211Z,11.50
2019-04-16T11:08:29.328Z,11.30
2019-04-16T11:10:59.554Z,12.20
2019-04-16T11:13:59.851Z,12.75
2019-04-16T11:16:21.408Z,12.05
2019-04-16T11:18:54.792Z,13.05
2019-04-16T11:21:23.079Z,12.13
2019-04-16T11:23:53.027Z,11.65
2019-04-16T11:26:23.449Z,12.18
2019-04-16T11:28:53.475Z,12.75
2019-04-16T11:31:24.120Z,12.05
2019-04-16T11:33:54.137Z,12.65
2019-04-16T11:36:24.214Z,11.70
2019-04-16T11:38:54.628Z,13.10
2019-04-16T11:41:25.029Z,11.95
2019-04-16T11:43:55.019Z,12.50
2019-04-16T11:46:25.034Z,12.73
2019-04-16T11:48:55.164Z,12.58
2019-04-16T11:51:25.241Z,12.95
2019-04-16T11:53:55.315Z,13.25
2019-04-16T11:56:25.344Z,13.60
2019-04-16T11:58:57.395Z,14.30
2019-04-16T12:01:58.640Z,13.43
2019-04-16T12:04:42.355Z,12.55
2019-04-16T12:07:34.436Z,13.50
2019-04-16T12:10:22.235Z,14.00
2019-04-16T12:13:13.987Z,13.65
2019-04-16T12:15:56.822Z,13.72
2019-04-16T12:18:45.957Z,13.05
2019-04-16T12:21:29.420Z,12.28
2019-04-16T12:24:27.175Z,13.72
2019-04-16T12:27:14.865Z,13.72
2019-04-16T12:30:02.807Z,14.30
2019-04-16T12:32:47.189Z,13.53
2019-04-16T12:35:34.431Z,13.88
2019-04-16T12:38:16.178Z,13.98
2019-04-16T12:41:00.137Z,14.05
2019-04-16T12:43:36.645Z,13.80
2019-04-16T12:46:19.877Z,13.50
2019-04-16T12:49:12.204Z,13.95
2019-04-16T12:51:48.732Z,13.53
2019-04-16T12:54:29.963Z,13.38
2019-04-16T12:57:25.400Z,15.13
2019-04-16T13:00:17.222Z,13.98
2019-04-16T13:03:05.334Z,14.05
2019-04-16T13:05:44.423Z,13.93
2019-04-16T13:08:34.545Z,14.23
2019-04-16T13:11:15.916Z,14.23
2019-04-16T13:14:11.065Z,14.98
2019-04-16T13:17:06.071Z,13.90
2019-04-16T13:19:56.150Z,15.43
2019-04-16T13:22:30.152Z,14.18
2019-04-16T13:25:31.483Z,14.35
2019-04-16T13:28:01.480Z,14.58
2019-04-16T13:30:31.806Z,15.65
2019-04-16T13:33:02.374Z,14.38
2019-04-16T13:35:32.345Z,14.75
2019-04-16T13:38:02.341Z,13.88
2019-04-16T13:40:32.303Z,13.88
2019-04-16T13:43:05.574Z,14.05
2019-04-16T13:45:38.936Z,16.20
2019-04-16T13:48:27.273Z,15.50
2019-04-16T13:50:58.307Z,14.55
2019-04-16T13:53:42.971Z,14.85
2019-04-16T13:56:20.043Z,15.28
2019-04-16T13:58:58.986Z,15.30
2019-04-16T14:01:30.315Z,14.40
2019-04-16T14:04:01.491Z,15.28
2019-04-16T14:06:32.993Z,14.93
2019-04-16T14:09:03.558Z,15.20
2019-04-16T14:11:35.326Z,15.95
2019-04-16T14:14:07.642Z,15.80
2019-04-16T14:16:37.077Z,15.40
2019-04-16T14:19:07.314Z,15.13
2019-04-16T14:21:37.413Z,15.15
2019-04-16T14:24:07.356Z,15.40
2019-04-16T14:26:37.477Z,15.70
2019-04-16T14:29:07.895Z,15.63
2019-04-16T14:31:39.167Z,15.13
2019-04-16T14:34:29.859Z,15.25
2019-04-16T14:37:00.331Z,15.30
2019-04-16T14:39:36.787Z,15.58
2019-04-16T14:42:07.356Z,14.93
2019-04-16T14:44:41.831Z,14.55
2019-04-16T14:47:12.172Z,15.15
2019-04-16T14:49:43.270Z,15.13
2019-04-16T14:52:13.653Z,14.60
2019-04-16T14:54:49.179Z,15.63
2019-04-16T14:57:19.262Z,14.73
2019-04-16T15:00:18.429Z,14.28
2019-04-16T15:03:11.073Z,15.80
2019-04-16T15:05:53.353Z,13.55
2019-04-16T15:08:38.678Z,14.40
2019-04-16T15:11:27.649Z,13.20
2019-04-16T15:14:04.733Z,13.70
2019-04-16T15:16:41.054Z,13.05
2019-04-16T15:19:26.457Z,13.93
2019-04-16T15:22:17.160Z,13.68
2019-04-16T15:25:04.891Z,14.40
2019-04-16T15:27:44.563Z,13.90
2019-04-16T15:30:31.479Z,15.00
2019-04-16T15:33:19.675Z,14.00
2019-04-16T15:36:07.677Z,13.30
2019-04-16T15:39:04.053Z,13.72
2019-04-16T15:41:54.198Z,13.40
2019-04-16T15:44:49.071Z,13.45
2019-04-16T15:47:43.010Z,14.35
2019-04-16T15:50:35.899Z,13.13
2019-04-16T15:53:23.536Z,13.68
2019-04-16T15:56:02.736Z,12.90
2019-04-16T15:58:39.090Z,13.68
2019-04-16T16:01:27.552Z,12.50
2019-04-16T16:04:13.180Z,14.65
2019-04-16T16:06:48.791Z,13.10
2019-04-16T16:09:23.331Z,13.13
2019-04-16T16:12:03.312Z,14.00
2019-04-16T16:14:38.447Z,14.85
2019-04-16T16:17:06.432Z,14.33
2019-04-16T16:19:37.370Z,13.65
2019-04-16T16:22:10.832Z,13.58
2019-04-16T16:24:42.001Z,14.85
2019-04-16T16:27:11.305Z,13.70
2019-04-16T16:29:41.290Z,13.70
2019-04-16T16:32:11.279Z,13.10
2019-04-16T16:34:41.273Z,12.70
2019-04-16T16:37:11.267Z,13.98
2019-04-16T16:39:41.427Z,13.22
2019-04-16T16:42:12.415Z,13.22
2019-04-16T16:44:42.378Z,13.10
2019-04-16T16:47:34.640Z,13.13
2019-04-16T16:50:07.279Z,13.85
2019-04-16T16:53:02.981Z,14.58
2019-04-16T16:55:42.100Z,14.05
2019-04-16T16:58:29.301Z,13.95
2019-04-16T17:01:17.558Z,14.35
2019-04-16T17:04:10.653Z,14.45
2019-04-16T17:06:40.711Z,14.47
2019-04-16T17:09:20.923Z,13.70
2019-04-16T17:11:51.591Z,15.40
2019-04-16T17:14:22.091Z,14.45
2019-04-16T17:16:52.151Z,15.53
2019-04-16T17:19:22.482Z,14.55
2019-04-16T17:21:52.482Z,15.28
2019-04-16T17:24:22.692Z,13.58
2019-04-16T17:26:52.713Z,14.73
2019-04-16T17:29:22.782Z,14.53
2019-04-16T17:31:53.712Z,14.15
2019-04-16T17:34:24.090Z,14.63
2019-04-16T17:36:54.454Z,15.93
2019-04-16T17:39:50.158Z,14.63
2019-04-16T17:42:21.732Z,14.00
2019-04-16T17:45:14.370Z,15.13
2019-04-16T17:48:09.961Z,13.13
2019-04-16T17:50:51.689Z,14.28
2019-04-16T17:53:43.638Z,14.47
2019-04-16T17:56:35.482Z,14.03
2019-04-16T17:59:08.714Z,13.90
2019-04-16T18:01:58.195Z,14.65
2019-04-16T18:04:35.680Z,14.78
2019-04-16T18:07:23.242Z,14.65
2019-04-16T18:10:10.758Z,15.08
2019-04-16T18:12:58.788Z,13.80
2019-04-16T18:15:53.618Z,14.15
2019-04-16T18:18:45.416Z,15.05
2019-04-16T18:21:33.194Z,15.38
2019-04-16T18:24:28.062Z,15.40
2019-04-16T18:27:13.234Z,14.70
2019-04-16T18:29:48.224Z,14.83
2019-04-16T18:32:36.018Z,15.88
2019-04-16T18:35:22.826Z,15.38
2019-04-16T18:38:01.895Z,16.02
2019-04-16T18:40:49.564Z,16.00
2019-04-16T18:43:35.604Z,15.95
2019-04-16T18:46:23.218Z,14.47
2019-04-16T18:48:57.387Z,16.07
2019-04-16T18:51:32.913Z,14.13
2019-04-16T18:53:59.014Z,15.23
2019-04-16T18:56:29.078Z,15.73
2019-04-16T18:58:59.064Z,15.25
2019-04-16T19:01:29.698Z,15.28
2019-04-16T19:04:01.100Z,15.30
2019-04-16T19:06:31.469Z,15.55
2019-04-16T19:09:01.452Z,16.20
2019-04-16T19:11:33.382Z,16.32
2019-04-16T19:14:03.307Z,15.88
2019-04-16T19:16:34.262Z,16.23
2019-04-16T19:19:04.515Z,16.77
2019-04-16T19:21:34.553Z,17.02
2019-04-16T19:24:04.780Z,15.70
2019-04-16T19:26:35.061Z,14.70
2019-04-16T19:29:05.975Z,17.23
2019-04-16T19:31:36.358Z,16.45
2019-04-16T19:34:10.264Z,16.42
2019-04-16T19:36:38.410Z,17.48
2019-04-16T19:39:13.516Z,16.10
2019-04-16T19:41:41.371Z,17.50
2019-04-16T19:44:11.800Z,16.75
2019-04-16T19:46:42.063Z,17.37
2019-04-16T19:49:13.659Z,17.33
2019-04-16T19:51:44.670Z,17.97
2019-04-16T19:54:14.773Z,16.82
2019-04-16T19:56:44.829Z,18.15
2019-04-16T19:59:15.097Z,17.32
2019-04-16T20:01:45.218Z,17.63
2019-04-16T20:04:15.444Z,19.25
2019-04-16T20:06:45.489Z,18.48
2019-04-16T20:09:15.738Z,16.42
2019-04-16T20:11:46.036Z,17.42
2019-04-16T20:14:15.941Z,16.90
2019-04-16T20:16:46.446Z,17.62
2019-04-16T20:19:16.450Z,17.17
2019-04-16T20:21:46.439Z,16.40
2019-04-16T20:24:16.689Z,16.70
2019-04-16T20:26:46.720Z,17.60
2019-04-16T20:29:16.629Z,18.07
2019-04-16T20:31:46.562Z,16.50
2019-04-16T20:34:18.178Z,17.40
2019-04-16T20:36:52.179Z,17.05
2019-04-16T20:39:20.963Z,15.97
2019-04-16T20:41:53.077Z,16.77
2019-04-16T20:44:22.601Z,18.07
2019-04-16T20:46:52.584Z,16.17
2019-04-16T20:49:22.568Z,17.00
2019-04-16T20:51:52.754Z,17.00
2019-04-16T20:54:22.996Z,17.23
2019-04-16T20:56:53.996Z,16.73
2019-04-16T20:59:24.346Z,16.40
2019-04-16T21:01:54.380Z,15.77
2019-04-16T21:04:24.384Z,15.93
2019-04-16T21:06:54.393Z,16.83
2019-04-16T21:09:26.764Z,16.93
2019-04-16T21:11:56.000Z,16.47
2019-04-16T21:14:25.923Z,15.78
2019-04-16T21:20:56.215Z,16.60
2019-04-16T21:23:26.267Z,16.70
2019-04-16T21:25:56.267Z,17.50
2019-04-16T21:28:33.943Z,15.70
2019-04-16T21:31:08.267Z,15.20
2019-04-16T21:33:58.209Z,15.93
2019-04-16T21:36:41.348Z,17.20
2019-04-16T21:39:20.565Z,16.07
2019-04-16T21:41:50.536Z,15.50
2019-04-16T21:44:20.514Z,15.70
2019-04-16T21:46:52.376Z,15.63
2019-04-16T21:49:37.311Z,15.43
2019-04-16T21:52:09.020Z,15.60
2019-04-16T21:54:39.508Z,15.33
2019-04-16T21:57:13.270Z,16.17
2019-04-16T21:59:41.872Z,16.23
2019-04-16T22:02:17.895Z,15.33
2019-04-16T22:04:48.856Z,15.80
2019-04-16T22:07:24.185Z,15.87
2019-04-16T22:09:50.931Z,15.13
2019-04-16T22:12:20.898Z,15.47
2019-04-16T22:14:53.730Z,15.73
2019-04-16T22:17:22.445Z,15.17
2019-04-16T22:20:00.189Z,15.47
2019-04-16T22:22:27.322Z,14.90
2019-04-16T22:24:56.465Z,14.67
2019-04-16T22:27:26.396Z,14.73
2019-04-16T22:29:56.368Z,15.73
2019-04-16T22:32:26.961Z,13.97
2019-04-16T22:34:58.931Z,15.90
2019-04-16T22:37:28.788Z,13.87
2019-04-16T22:40:22.801Z,14.90
2019-04-16T22:43:15.861Z,15.00
2019-04-16T22:45:52.232Z,15.47
2019-04-16T22:48:22.130Z,15.53
2019-04-16T22:50:52.115Z,15.13
2019-04-16T22:53:22.080Z,15.30
2019-04-16T22:55:56.353Z,15.50
2019-04-16T22:58:24.840Z,15.30
2019-04-16T23:01:02.048Z,14.57
2019-04-16T23:03:32.280Z,15.10
2019-04-16T23:06:05.513Z,14.73
2019-04-16T23:08:33.934Z,14.30
2019-04-16T23:11:04.187Z,15.40
2019-04-16T23:13:34.157Z,14.57
2019-04-16T23:16:04.564Z,15.17
2019-04-16T23:18:34.635Z,15.07
2019-04-16T23:21:09.279Z,14.53
2019-04-16T23:23:36.535Z,16.10
2019-04-16T23:26:06.780Z,15.53
2019-04-16T23:28:39.708Z,14.40
2019-04-16T23:31:09.026Z,16.30
2019-04-16T23:33:39.661Z,13.73
2019-04-16T23:36:15.356Z,14.80
2019-04-16T23:38:41.627Z,14.13
2019-04-16T23:41:15.526Z,14.40
2019-04-16T23:43:59.027Z,14.70
2019-04-16T23:46:45.153Z,14.80
2019-04-16T23:49:37.240Z,14.63
2019-04-16T23:52:16.667Z,14.80
2019-04-16T23:54:59.671Z,13.80
2019-04-16T23:57:56.790Z,13.93
